sensor_id;sensor_type;location;lat;lon;timestamp;P1;durP1;ratioP1;P2;durP2;ratioP2
12519;SDS011;6325;49.540;8.364;2024-02-16T00:01:11;2.58;;;2.22;;
12519;SDS011;6325;49.540;8.364;2024-02-16T00:03:39;2.42;;;2.22;;
12519;SDS011;6325;49.540;8.364;2024-02-16T00:06:06;2.30;;;2.20;;
12519;SDS011;6325;49.540;8.364;2024-02-16T00:08:33;2.78;;;2.35;;
12519;SDS011;6325;49.540;8.364;2024-02-16T00:11:03;2.30;;;2.10;;
12519;SDS011;6325;49.540;8.364;2024-02-16T00:13:30;2.58;;;2.38;;
12519;SDS011;6325;49.540;8.364;2024-02-16T00:15:57;2.47;;;2.27;;
12519;SDS011;6325;49.540;8.364;2024-02-16T00:18:24;2.47;;;2.28;;
12519;SDS011;6325;49.540;8.364;2024-02-16T00:20:52;2.50;;;2.28;;
12519;SDS011;6325;49.540;8.364;2024-02-16T00:23:19;3.40;;;2.70;;
12519;SDS011;6325;49.540;8.364;2024-02-16T00:25:47;2.47;;;2.28;;
12519;SDS011;6325;49.540;8.364;2024-02-16T00:28:14;2.28;;;2.15;;
12519;SDS011;6325;49.540;8.364;2024-02-16T00:30:41;2.80;;;2.60;;
12519;SDS011;6325;49.540;8.364;2024-02-16T00:33:07;2.77;;;2.57;;
12519;SDS011;6325;49.540;8.364;2024-02-16T00:35:34;2.90;;;2.60;;
12519;SDS011;6325;49.540;8.364;2024-02-16T00:38:02;2.70;;;2.50;;
12519;SDS011;6325;49.540;8.364;2024-02-16T00:40:29;2.80;;;2.60;;
12519;SDS011;6325;49.540;8.364;2024-02-16T00:42:56;2.85;;;2.63;;
12519;SDS011;6325;49.540;8.364;2024-02-16T00:45:23;3.33;;;3.00;;
12519;SDS011;6325;49.540;8.364;2024-02-16T00:47:50;2.72;;;2.50;;
12519;SDS011;6325;49.540;8.364;2024-02-16T00:50:17;3.00;;;2.63;;
12519;SDS011;6325;49.540;8.364;2024-02-16T00:52:43;2.50;;;2.30;;
12519;SDS011;6325;49.540;8.364;2024-02-16T00:55:12;2.90;;;2.70;;
12519;SDS011;6325;49.540;8.364;2024-02-16T00:57:39;2.85;;;2.42;;
12519;SDS011;6325;49.540;8.364;2024-02-16T01:00:06;3.03;;;2.58;;
12519;SDS011;6325;49.540;8.364;2024-02-16T01:02:35;2.70;;;2.50;;
12519;SDS011;6325;49.540;8.364;2024-02-16T01:05:01;2.70;;;2.50;;
12519;SDS011;6325;49.540;8.364;2024-02-16T01:07:29;3.33;;;2.70;;
12519;SDS011;6325;49.540;8.364;2024-02-16T01:09:57;2.92;;;2.70;;
12519;SDS011;6325;49.540;8.364;2024-02-16T01:12:26;3.25;;;2.95;;
12519;SDS011;6325;49.540;8.364;2024-02-16T01:14:53;2.90;;;2.70;;
12519;SDS011;6325;49.540;8.364;2024-02-16T01:17:20;4.10;;;3.03;;
12519;SDS011;6325;49.540;8.364;2024-02-16T01:19:46;3.10;;;2.83;;
12519;SDS011;6325;49.540;8.364;2024-02-16T01:22:13;3.40;;;3.10;;
12519;SDS011;6325;49.540;8.364;2024-02-16T01:24:40;3.35;;;3.15;;
12519;SDS011;6325;49.540;8.364;2024-02-16T01:27:07;3.42;;;3.13;;
12519;SDS011;6325;49.540;8.364;2024-02-16T01:29:35;3.25;;;2.95;;
12519;SDS011;6325;49.540;8.364;2024-02-16T01:32:02;3.20;;;2.90;;
12519;SDS011;6325;49.540;8.364;2024-02-16T01:34:29;3.85;;;2.75;;
12519;SDS011;6325;49.540;8.364;2024-02-16T01:36:56;3.35;;;2.97;;
12519;SDS011;6325;49.540;8.364;2024-02-16T01:39:23;3.08;;;2.70;;
12519;SDS011;6325;49.540;8.364;2024-02-16T01:41:50;2.95;;;2.70;;
12519;SDS011;6325;49.540;8.364;2024-02-16T01:44:17;3.28;;;2.47;;
12519;SDS011;6325;49.540;8.364;2024-02-16T01:46:45;2.97;;;2.60;;
12519;SDS011;6325;49.540;8.364;2024-02-16T01:49:12;3.10;;;2.80;;
12519;SDS011;6325;49.540;8.364;2024-02-16T01:51:40;3.22;;;3.00;;
12519;SDS011;6325;49.540;8.364;2024-02-16T01:54:09;3.38;;;3.17;;
12519;SDS011;6325;49.540;8.364;2024-02-16T01:56:37;3.83;;;3.40;;
12519;SDS011;6325;49.540;8.364;2024-02-16T01:59:03;3.20;;;2.90;;
12519;SDS011;6325;49.540;8.364;2024-02-16T02:01:30;3.50;;;3.20;;
12519;SDS011;6325;49.540;8.364;2024-02-16T02:03:58;4.00;;;3.67;;
12519;SDS011;6325;49.540;8.364;2024-02-16T02:06:25;3.80;;;3.50;;
12519;SDS011;6325;49.540;8.364;2024-02-16T02:08:52;4.93;;;4.50;;
12519;SDS011;6325;49.540;8.364;2024-02-16T02:11:18;4.60;;;4.20;;
12519;SDS011;6325;49.540;8.364;2024-02-16T02:13:45;5.20;;;4.70;;
12519;SDS011;6325;49.540;8.364;2024-02-16T02:16:12;4.90;;;4.50;;
12519;SDS011;6325;49.540;8.364;2024-02-16T02:18:39;5.50;;;5.00;;
12519;SDS011;6325;49.540;8.364;2024-02-16T02:21:07;4.95;;;4.55;;
12519;SDS011;6325;49.540;8.364;2024-02-16T02:23:35;5.03;;;4.65;;
12519;SDS011;6325;49.540;8.364;2024-02-16T02:26:02;5.23;;;4.83;;
12519;SDS011;6325;49.540;8.364;2024-02-16T02:28:29;5.00;;;4.57;;
12519;SDS011;6325;49.540;8.364;2024-02-16T02:30:56;4.60;;;4.30;;
12519;SDS011;6325;49.540;8.364;2024-02-16T02:33:23;4.50;;;4.10;;
12519;SDS011;6325;49.540;8.364;2024-02-16T02:35:49;4.40;;;4.10;;
12519;SDS011;6325;49.540;8.364;2024-02-16T02:38:16;3.90;;;3.60;;
12519;SDS011;6325;49.540;8.364;2024-02-16T02:40:44;4.22;;;3.88;;
12519;SDS011;6325;49.540;8.364;2024-02-16T02:43:11;4.30;;;4.00;;
12519;SDS011;6325;49.540;8.364;2024-02-16T02:45:39;4.10;;;3.60;;
12519;SDS011;6325;49.540;8.364;2024-02-16T02:48:06;3.80;;;3.50;;
12519;SDS011;6325;49.540;8.364;2024-02-16T02:50:33;3.70;;;3.40;;
12519;SDS011;6325;49.540;8.364;2024-02-16T02:53:00;3.60;;;3.30;;
12519;SDS011;6325;49.540;8.364;2024-02-16T02:55:26;3.17;;;2.97;;
12519;SDS011;6325;49.540;8.364;2024-02-16T02:57:54;3.03;;;2.80;;
12519;SDS011;6325;49.540;8.364;2024-02-16T03:00:22;2.97;;;2.77;;
12519;SDS011;6325;49.540;8.364;2024-02-16T03:02:50;2.92;;;2.63;;
12519;SDS011;6325;49.540;8.364;2024-02-16T03:05:17;2.85;;;2.65;;
12519;SDS011;6325;49.540;8.364;2024-02-16T03:07:45;2.63;;;2.42;;
12519;SDS011;6325;49.540;8.364;2024-02-16T03:10:11;2.50;;;2.30;;
12519;SDS011;6325;49.540;8.364;2024-02-16T03:12:40;2.55;;;2.35;;
12519;SDS011;6325;49.540;8.364;2024-02-16T03:15:09;2.13;;;2.03;;
12519;SDS011;6325;49.540;8.364;2024-02-16T03:17:35;2.47;;;2.28;;
12519;SDS011;6325;49.540;8.364;2024-02-16T03:20:02;2.25;;;2.10;;
12519;SDS011;6325;49.540;8.364;2024-02-16T03:22:30;2.40;;;2.30;;
12519;SDS011;6325;49.540;8.364;2024-02-16T03:24:57;2.20;;;2.07;;
12519;SDS011;6325;49.540;8.364;2024-02-16T03:27:23;2.70;;;2.50;;
12519;SDS011;6325;49.540;8.364;2024-02-16T03:29:50;2.40;;;2.20;;
12519;SDS011;6325;49.540;8.364;2024-02-16T03:32:19;2.42;;;2.30;;
12519;SDS011;6325;49.540;8.364;2024-02-16T03:34:46;2.60;;;2.40;;
12519;SDS011;6325;49.540;8.364;2024-02-16T03:37:13;2.60;;;2.40;;
12519;SDS011;6325;49.540;8.364;2024-02-16T03:39:41;2.70;;;2.50;;
12519;SDS011;6325;49.540;8.364;2024-02-16T03:42:08;3.08;;;2.78;;
12519;SDS011;6325;49.540;8.364;2024-02-16T03:44:35;2.88;;;2.67;;
12519;SDS011;6325;49.540;8.364;2024-02-16T03:47:02;3.03;;;2.67;;
12519;SDS011;6325;49.540;8.364;2024-02-16T03:49:30;3.00;;;2.72;;
12519;SDS011;6325;49.540;8.364;2024-02-16T03:51:57;3.00;;;2.70;;
12519;SDS011;6325;49.540;8.364;2024-02-16T03:54:24;2.80;;;2.60;;
12519;SDS011;6325;49.540;8.364;2024-02-16T03:56:52;2.95;;;2.67;;
12519;SDS011;6325;49.540;8.364;2024-02-16T03:59:19;2.83;;;2.60;;
12519;SDS011;6325;49.540;8.364;2024-02-16T04:01:46;2.90;;;2.70;;
12519;SDS011;6325;49.540;8.364;2024-02-16T04:04:13;2.83;;;2.63;;
12519;SDS011;6325;49.540;8.364;2024-02-16T04:06:41;3.00;;;2.70;;
12519;SDS011;6325;49.540;8.364;2024-02-16T04:09:08;3.38;;;3.08;;
12519;SDS011;6325;49.540;8.364;2024-02-16T04:11:34;3.30;;;3.10;;
12519;SDS011;6325;49.540;8.364;2024-02-16T04:14:01;3.35;;;3.15;;
12519;SDS011;6325;49.540;8.364;2024-02-16T04:16:27;2.92;;;2.72;;
12519;SDS011;6325;49.540;8.364;2024-02-16T04:18:54;3.20;;;2.90;;
12519;SDS011;6325;49.540;8.364;2024-02-16T04:21:21;3.10;;;2.75;;
12519;SDS011;6325;49.540;8.364;2024-02-16T04:23:49;2.92;;;2.63;;
12519;SDS011;6325;49.540;8.364;2024-02-16T04:26:16;3.20;;;2.90;;
12519;SDS011;6325;49.540;8.364;2024-02-16T04:28:42;2.80;;;2.60;;
12519;SDS011;6325;49.540;8.364;2024-02-16T04:31:09;3.15;;;2.90;;
12519;SDS011;6325;49.540;8.364;2024-02-16T04:33:36;4.03;;;2.83;;
12519;SDS011;6325;49.540;8.364;2024-02-16T04:36:05;2.95;;;2.75;;
12519;SDS011;6325;49.540;8.364;2024-02-16T04:38:33;2.70;;;2.50;;
12519;SDS011;6325;49.540;8.364;2024-02-16T04:41:01;3.10;;;2.60;;
12519;SDS011;6325;49.540;8.364;2024-02-16T04:43:27;2.60;;;2.40;;
12519;SDS011;6325;49.540;8.364;2024-02-16T04:45:54;2.40;;;2.20;;
12519;SDS011;6325;49.540;8.364;2024-02-16T04:48:21;2.85;;;2.58;;
12519;SDS011;6325;49.540;8.364;2024-02-16T04:50:48;2.30;;;2.20;;
12519;SDS011;6325;49.540;8.364;2024-02-16T04:53:14;2.83;;;2.60;;
12519;SDS011;6325;49.540;8.364;2024-02-16T04:55:41;2.42;;;2.33;;
12519;SDS011;6325;49.540;8.364;2024-02-16T04:58:09;2.60;;;2.40;;
12519;SDS011;6325;49.540;8.364;2024-02-16T05:00:36;2.67;;;2.47;;
12519;SDS011;6325;49.540;8.364;2024-02-16T05:03:03;2.67;;;2.47;;
12519;SDS011;6325;49.540;8.364;2024-02-16T05:05:30;2.63;;;2.42;;
12519;SDS011;6325;49.540;8.364;2024-02-16T05:07:57;2.70;;;2.50;;
12519;SDS011;6325;49.540;8.364;2024-02-16T05:10:24;3.10;;;2.90;;
12519;SDS011;6325;49.540;8.364;2024-02-16T05:12:50;2.58;;;2.47;;
12519;SDS011;6325;49.540;8.364;2024-02-16T05:15:19;2.43;;;2.23;;
12519;SDS011;6325;49.540;8.364;2024-02-16T05:17:47;2.58;;;2.40;;
12519;SDS011;6325;49.540;8.364;2024-02-16T05:20:15;2.70;;;2.50;;
12519;SDS011;6325;49.540;8.364;2024-02-16T05:22:42;2.70;;;2.50;;
12519;SDS011;6325;49.540;8.364;2024-02-16T05:25:10;2.70;;;2.50;;
12519;SDS011;6325;49.540;8.364;2024-02-16T05:27:38;2.60;;;2.40;;
12519;SDS011;6325;49.540;8.364;2024-02-16T05:30:05;2.60;;;2.40;;
12519;SDS011;6325;49.540;8.364;2024-02-16T05:32:36;2.67;;;2.47;;
12519;SDS011;6325;49.540;8.364;2024-02-16T05:35:03;2.75;;;2.55;;
12519;SDS011;6325;49.540;8.364;2024-02-16T05:37:36;3.10;;;2.80;;
12519;SDS011;6325;49.540;8.364;2024-02-16T05:40:07;2.92;;;2.72;;
12519;SDS011;6325;49.540;8.364;2024-02-16T05:42:44;2.90;;;2.60;;
12519;SDS011;6325;49.540;8.364;2024-02-16T05:45:12;3.03;;;2.80;;
12519;SDS011;6325;49.540;8.364;2024-02-16T05:47:40;3.00;;;2.70;;
12519;SDS011;6325;49.540;8.364;2024-02-16T05:50:08;3.03;;;2.75;;
12519;SDS011;6325;49.540;8.364;2024-02-16T05:52:36;3.10;;;2.90;;
12519;SDS011;6325;49.540;8.364;2024-02-16T05:55:04;2.83;;;2.63;;
12519;SDS011;6325;49.540;8.364;2024-02-16T05:57:31;3.13;;;2.92;;
12519;SDS011;6325;49.540;8.364;2024-02-16T05:59:58;3.13;;;2.90;;
12519;SDS011;6325;49.540;8.364;2024-02-16T06:02:25;3.10;;;2.90;;
12519;SDS011;6325;49.540;8.364;2024-02-16T06:04:53;3.40;;;3.10;;
12519;SDS011;6325;49.540;8.364;2024-02-16T06:07:20;2.97;;;2.78;;
12519;SDS011;6325;49.540;8.364;2024-02-16T06:09:47;3.15;;;2.85;;
12519;SDS011;6325;49.540;8.364;2024-02-16T06:12:14;3.00;;;2.80;;
12519;SDS011;6325;49.540;8.364;2024-02-16T06:14:41;3.50;;;3.20;;
12519;SDS011;6325;49.540;8.364;2024-02-16T06:17:07;3.20;;;2.90;;
12519;SDS011;6325;49.540;8.364;2024-02-16T06:19:46;3.00;;;2.78;;
12519;SDS011;6325;49.540;8.364;2024-02-16T06:22:14;3.05;;;2.85;;
12519;SDS011;6325;49.540;8.364;2024-02-16T06:24:41;3.40;;;3.10;;
12519;SDS011;6325;49.540;8.364;2024-02-16T06:27:09;2.90;;;2.70;;
12519;SDS011;6325;49.540;8.364;2024-02-16T06:29:36;3.00;;;2.80;;
12519;SDS011;6325;49.540;8.364;2024-02-16T06:32:03;3.55;;;2.80;;
12519;SDS011;6325;49.540;8.364;2024-02-16T06:34:30;3.33;;;3.03;;
12519;SDS011;6325;49.540;8.364;2024-02-16T06:36:57;3.00;;;2.80;;
12519;SDS011;6325;49.540;8.364;2024-02-16T06:39:25;3.27;;;3.07;;
12519;SDS011;6325;49.540;8.364;2024-02-16T06:41:51;3.47;;;3.17;;
12519;SDS011;6325;49.540;8.364;2024-02-16T06:44:18;3.40;;;3.10;;
12519;SDS011;6325;49.540;8.364;2024-02-16T06:46:45;3.50;;;3.20;;
12519;SDS011;6325;49.540;8.364;2024-02-16T06:49:12;3.30;;;3.00;;
12519;SDS011;6325;49.540;8.364;2024-02-16T06:51:38;3.30;;;3.10;;
12519;SDS011;6325;49.540;8.364;2024-02-16T06:54:05;3.78;;;3.40;;
12519;SDS011;6325;49.540;8.364;2024-02-16T06:56:33;4.53;;;3.80;;
12519;SDS011;6325;49.540;8.364;2024-02-16T06:59:00;3.63;;;3.33;;
12519;SDS011;6325;49.540;8.364;2024-02-16T07:01:27;3.85;;;3.55;;
12519;SDS011;6325;49.540;8.364;2024-02-16T07:03:54;4.30;;;3.97;;
12519;SDS011;6325;49.540;8.364;2024-02-16T07:06:21;4.10;;;3.70;;
12519;SDS011;6325;49.540;8.364;2024-02-16T07:08:47;4.10;;;3.70;;
12519;SDS011;6325;49.540;8.364;2024-02-16T07:11:14;4.03;;;3.63;;
12519;SDS011;6325;49.540;8.364;2024-02-16T07:13:43;3.95;;;3.65;;
12519;SDS011;6325;49.540;8.364;2024-02-16T07:16:09;4.10;;;3.70;;
12519;SDS011;6325;49.540;8.364;2024-02-16T07:18:36;4.30;;;3.83;;
12519;SDS011;6325;49.540;8.364;2024-02-16T07:21:03;4.00;;;3.70;;
12519;SDS011;6325;49.540;8.364;2024-02-16T07:23:30;3.92;;;3.63;;
12519;SDS011;6325;49.540;8.364;2024-02-16T07:25:57;4.22;;;3.83;;
12519;SDS011;6325;49.540;8.364;2024-02-16T07:28:24;5.45;;;3.78;;
12519;SDS011;6325;49.540;8.364;2024-02-16T07:30:52;3.78;;;3.47;;
12519;SDS011;6325;49.540;8.364;2024-02-16T07:33:20;4.20;;;3.80;;
12519;SDS011;6325;49.540;8.364;2024-02-16T07:35:49;4.30;;;3.90;;
12519;SDS011;6325;49.540;8.364;2024-02-16T07:38:16;4.28;;;3.90;;
12519;SDS011;6325;49.540;8.364;2024-02-16T07:40:43;3.90;;;3.60;;
12519;SDS011;6325;49.540;8.364;2024-02-16T07:43:10;4.20;;;3.80;;
12519;SDS011;6325;49.540;8.364;2024-02-16T07:45:37;4.15;;;3.78;;
12519;SDS011;6325;49.540;8.364;2024-02-16T07:48:06;4.10;;;3.80;;
12519;SDS011;6325;49.540;8.364;2024-02-16T07:50:33;4.25;;;3.85;;
12519;SDS011;6325;49.540;8.364;2024-02-16T07:53:00;4.22;;;3.80;;
12519;SDS011;6325;49.540;8.364;2024-02-16T07:55:27;3.90;;;3.50;;
12519;SDS011;6325;49.540;8.364;2024-02-16T07:57:53;4.13;;;3.60;;
12519;SDS011;6325;49.540;8.364;2024-02-16T08:00:20;4.15;;;3.75;;
12519;SDS011;6325;49.540;8.364;2024-02-16T08:02:47;3.97;;;3.67;;
12519;SDS011;6325;49.540;8.364;2024-02-16T08:05:15;3.70;;;3.40;;
12519;SDS011;6325;49.540;8.364;2024-02-16T08:07:44;4.07;;;3.78;;
12519;SDS011;6325;49.540;8.364;2024-02-16T08:10:12;3.97;;;3.67;;
12519;SDS011;6325;49.540;8.364;2024-02-16T08:12:39;3.78;;;3.47;;
12519;SDS011;6325;49.540;8.364;2024-02-16T08:15:06;4.10;;;3.80;;
12519;SDS011;6325;49.540;8.364;2024-02-16T08:17:33;4.35;;;3.88;;
12519;SDS011;6325;49.540;8.364;2024-02-16T08:20:00;3.80;;;3.50;;
12519;SDS011;6325;49.540;8.364;2024-02-16T08:22:28;3.90;;;3.60;;
12519;SDS011;6325;49.540;8.364;2024-02-16T08:24:55;4.00;;;3.60;;
12519;SDS011;6325;49.540;8.364;2024-02-16T08:27:21;4.43;;;3.50;;
12519;SDS011;6325;49.540;8.364;2024-02-16T08:29:48;3.53;;;3.22;;
12519;SDS011;6325;49.540;8.364;2024-02-16T08:32:15;3.60;;;3.30;;
12519;SDS011;6325;49.540;8.364;2024-02-16T08:34:43;3.67;;;3.38;;
12519;SDS011;6325;49.540;8.364;2024-02-16T08:37:09;3.85;;;3.45;;
12519;SDS011;6325;49.540;8.364;2024-02-16T08:39:39;3.25;;;3.05;;
12519;SDS011;6325;49.540;8.364;2024-02-16T08:42:06;3.55;;;3.25;;
12519;SDS011;6325;49.540;8.364;2024-02-16T08:44:33;3.78;;;3.47;;
12519;SDS011;6325;49.540;8.364;2024-02-16T08:47:01;3.67;;;3.38;;
12519;SDS011;6325;49.540;8.364;2024-02-16T08:49:28;3.55;;;3.25;;
12519;SDS011;6325;49.540;8.364;2024-02-16T08:51:55;3.70;;;3.40;;
12519;SDS011;6325;49.540;8.364;2024-02-16T08:54:22;3.97;;;3.60;;
12519;SDS011;6325;49.540;8.364;2024-02-16T08:56:52;4.10;;;3.60;;
12519;SDS011;6325;49.540;8.364;2024-02-16T08:59:19;3.85;;;3.55;;
12519;SDS011;6325;49.540;8.364;2024-02-16T09:01:46;3.55;;;3.25;;
12519;SDS011;6325;49.540;8.364;2024-02-16T09:04:13;3.65;;;3.35;;
12519;SDS011;6325;49.540;8.364;2024-02-16T09:06:40;3.85;;;3.47;;
12519;SDS011;6325;49.540;8.364;2024-02-16T09:09:08;4.00;;;3.57;;
12519;SDS011;6325;49.540;8.364;2024-02-16T09:11:35;3.72;;;3.42;;
12519;SDS011;6325;49.540;8.364;2024-02-16T09:14:03;3.45;;;3.15;;
12519;SDS011;6325;49.540;8.364;2024-02-16T09:16:30;4.15;;;3.72;;
12519;SDS011;6325;49.540;8.364;2024-02-16T09:18:57;3.50;;;3.20;;
12519;SDS011;6325;49.540;8.364;2024-02-16T09:21:24;3.70;;;3.40;;
12519;SDS011;6325;49.540;8.364;2024-02-16T09:23:54;4.10;;;3.57;;
12519;SDS011;6325;49.540;8.364;2024-02-16T09:26:23;4.15;;;3.70;;
12519;SDS011;6325;49.540;8.364;2024-02-16T09:28:55;3.85;;;3.55;;
12519;SDS011;6325;49.540;8.364;2024-02-16T09:31:23;3.73;;;3.43;;
12519;SDS011;6325;49.540;8.364;2024-02-16T09:33:50;3.42;;;3.20;;
12519;SDS011;6325;49.540;8.364;2024-02-16T09:36:18;3.65;;;3.35;;
12519;SDS011;6325;49.540;8.364;2024-02-16T09:38:45;4.35;;;3.45;;
12519;SDS011;6325;49.540;8.364;2024-02-16T09:41:12;3.50;;;3.22;;
12519;SDS011;6325;49.540;8.364;2024-02-16T09:43:41;3.88;;;3.47;;
12519;SDS011;6325;49.540;8.364;2024-02-16T09:46:08;3.60;;;3.30;;
12519;SDS011;6325;49.540;8.364;2024-02-16T09:48:36;3.40;;;3.10;;
12519;SDS011;6325;49.540;8.364;2024-02-16T09:51:06;3.55;;;3.22;;
12519;SDS011;6325;49.540;8.364;2024-02-16T09:53:34;3.30;;;3.10;;
12519;SDS011;6325;49.540;8.364;2024-02-16T09:56:00;3.28;;;2.95;;
12519;SDS011;6325;49.540;8.364;2024-02-16T09:58:28;3.10;;;2.90;;
12519;SDS011;6325;49.540;8.364;2024-02-16T10:00:55;3.20;;;3.00;;
12519;SDS011;6325;49.540;8.364;2024-02-16T10:03:24;3.23;;;2.93;;
12519;SDS011;6325;49.540;8.364;2024-02-16T10:06:03;2.83;;;2.60;;
12519;SDS011;6325;49.540;8.364;2024-02-16T10:08:31;2.78;;;2.58;;
12519;SDS011;6325;49.540;8.364;2024-02-16T10:11:01;2.75;;;2.55;;
12519;SDS011;6325;49.540;8.364;2024-02-16T10:13:28;2.97;;;2.72;;
12519;SDS011;6325;49.540;8.364;2024-02-16T10:16:03;2.50;;;2.30;;
12519;SDS011;6325;49.540;8.364;2024-02-16T10:18:33;2.55;;;2.38;;
12519;SDS011;6325;49.540;8.364;2024-02-16T10:21:02;3.28;;;2.60;;
12519;SDS011;6325;49.540;8.364;2024-02-16T10:23:29;2.53;;;2.33;;
12519;SDS011;6325;49.540;8.364;2024-02-16T10:25:56;2.60;;;2.40;;
12519;SDS011;6325;49.540;8.364;2024-02-16T10:28:24;2.28;;;2.17;;
12519;SDS011;6325;49.540;8.364;2024-02-16T10:30:55;2.75;;;2.33;;
12519;SDS011;6325;49.540;8.364;2024-02-16T10:33:25;2.42;;;2.10;;
12519;SDS011;6325;49.540;8.364;2024-02-16T10:35:54;2.35;;;2.15;;
12519;SDS011;6325;49.540;8.364;2024-02-16T10:38:23;1.90;;;1.80;;
12519;SDS011;6325;49.540;8.364;2024-02-16T10:40:52;2.20;;;2.00;;
12519;SDS011;6325;49.540;8.364;2024-02-16T10:43:20;2.33;;;2.13;;
12519;SDS011;6325;49.540;8.364;2024-02-16T10:45:48;2.00;;;1.90;;
12519;SDS011;6325;49.540;8.364;2024-02-16T10:48:17;2.10;;;2.00;;
12519;SDS011;6325;49.540;8.364;2024-02-16T10:50:45;2.22;;;1.92;;
12519;SDS011;6325;49.540;8.364;2024-02-16T10:53:14;2.00;;;1.90;;
12519;SDS011;6325;49.540;8.364;2024-02-16T10:55:47;2.65;;;2.00;;
12519;SDS011;6325;49.540;8.364;2024-02-16T10:58:16;2.17;;;1.90;;
12519;SDS011;6325;49.540;8.364;2024-02-16T11:00:50;2.20;;;2.00;;
12519;SDS011;6325;49.540;8.364;2024-02-16T11:03:17;2.13;;;1.77;;
12519;SDS011;6325;49.540;8.364;2024-02-16T11:05:49;2.00;;;1.70;;
12519;SDS011;6325;49.540;8.364;2024-02-16T11:08:16;1.90;;;1.60;;
12519;SDS011;6325;49.540;8.364;2024-02-16T11:10:57;1.70;;;1.50;;
12519;SDS011;6325;49.540;8.364;2024-02-16T11:13:25;1.60;;;1.50;;
12519;SDS011;6325;49.540;8.364;2024-02-16T11:15:56;1.50;;;1.40;;
12519;SDS011;6325;49.540;8.364;2024-02-16T11:18:24;2.17;;;1.42;;
12519;SDS011;6325;49.540;8.364;2024-02-16T11:20:51;1.65;;;1.55;;
12519;SDS011;6325;49.540;8.364;2024-02-16T11:23:24;9.82;;;5.05;;
12519;SDS011;6325;49.540;8.364;2024-02-16T11:25:53;11.95;;;6.60;;
12519;SDS011;6325;49.540;8.364;2024-02-16T11:28:21;13.65;;;7.57;;
12519;SDS011;6325;49.540;8.364;2024-02-16T11:30:48;7.63;;;4.15;;
12519;SDS011;6325;49.540;8.364;2024-02-16T11:33:16;1.77;;;1.65;;
12519;SDS011;6325;49.540;8.364;2024-02-16T11:35:51;4.57;;;2.53;;
12519;SDS011;6325;49.540;8.364;2024-02-16T11:38:18;2.95;;;2.00;;
12519;SDS011;6325;49.540;8.364;2024-02-16T11:40:52;4.23;;;2.60;;
12519;SDS011;6325;49.540;8.364;2024-02-16T11:43:21;1.63;;;1.45;;
12519;SDS011;6325;49.540;8.364;2024-02-16T11:45:48;3.03;;;2.40;;
12519;SDS011;6325;49.540;8.364;2024-02-16T11:48:19;7.20;;;4.40;;
12519;SDS011;6325;49.540;8.364;2024-02-16T11:50:47;7.27;;;4.53;;
12519;SDS011;6325;49.540;8.364;2024-02-16T11:53:15;3.47;;;2.30;;
12519;SDS011;6325;49.540;8.364;2024-02-16T11:55:46;2.47;;;1.90;;
12519;SDS011;6325;49.540;8.364;2024-02-16T11:58:13;2.53;;;1.75;;
12519;SDS011;6325;49.540;8.364;2024-02-16T12:00:43;1.50;;;1.40;;
12519;SDS011;6325;49.540;8.364;2024-02-16T12:03:10;1.53;;;1.43;;
12519;SDS011;6325;49.540;8.364;2024-02-16T12:05:37;1.50;;;1.40;;
12519;SDS011;6325;49.540;8.364;2024-02-16T12:08:05;2.30;;;1.60;;
12519;SDS011;6325;49.540;8.364;2024-02-16T12:10:32;1.60;;;1.50;;
12519;SDS011;6325;49.540;8.364;2024-02-16T12:12:59;2.05;;;1.50;;
12519;SDS011;6325;49.540;8.364;2024-02-16T12:15:27;1.60;;;1.50;;
12519;SDS011;6325;49.540;8.364;2024-02-16T12:18:01;2.67;;;1.58;;
12519;SDS011;6325;49.540;8.364;2024-02-16T12:20:29;1.67;;;1.58;;
12519;SDS011;6325;49.540;8.364;2024-02-16T12:22:58;2.70;;;1.92;;
12519;SDS011;6325;49.540;8.364;2024-02-16T12:25:27;2.08;;;1.60;;
12519;SDS011;6325;49.540;8.364;2024-02-16T12:27:54;1.83;;;1.50;;
12519;SDS011;6325;49.540;8.364;2024-02-16T12:30:22;8.13;;;4.55;;
12519;SDS011;6325;49.540;8.364;2024-02-16T12:32:50;3.88;;;2.67;;
12519;SDS011;6325;49.540;8.364;2024-02-16T12:35:19;2.20;;;2.00;;
12519;SDS011;6325;49.540;8.364;2024-02-16T12:37:46;1.60;;;1.50;;
12519;SDS011;6325;49.540;8.364;2024-02-16T12:40:12;2.08;;;1.50;;
12519;SDS011;6325;49.540;8.364;2024-02-16T12:42:40;6.68;;;3.97;;
12519;SDS011;6325;49.540;8.364;2024-02-16T12:45:38;5.93;;;3.08;;
12519;SDS011;6325;49.540;8.364;2024-02-16T12:48:05;4.03;;;2.40;;
12519;SDS011;6325;49.540;8.364;2024-02-16T12:50:35;10.48;;;5.25;;
12519;SDS011;6325;49.540;8.364;2024-02-16T12:53:04;10.98;;;5.55;;
12519;SDS011;6325;49.540;8.364;2024-02-16T12:55:30;12.95;;;6.28;;
12519;SDS011;6325;49.540;8.364;2024-02-16T12:57:57;13.13;;;6.40;;
12519;SDS011;6325;49.540;8.364;2024-02-16T13:00:24;5.30;;;3.05;;
12519;SDS011;6325;49.540;8.364;2024-02-16T13:02:51;5.53;;;3.38;;
12519;SDS011;6325;49.540;8.364;2024-02-16T13:05:18;4.85;;;3.05;;
12519;SDS011;6325;49.540;8.364;2024-02-16T13:07:46;2.53;;;1.70;;
12519;SDS011;6325;49.540;8.364;2024-02-16T13:10:12;3.67;;;2.05;;
12519;SDS011;6325;49.540;8.364;2024-02-16T13:12:39;5.05;;;2.80;;
12519;SDS011;6325;49.540;8.364;2024-02-16T13:15:08;5.00;;;2.42;;
12519;SDS011;6325;49.540;8.364;2024-02-16T13:17:35;6.95;;;3.35;;
12519;SDS011;6325;49.540;8.364;2024-02-16T13:20:02;3.42;;;2.30;;
12519;SDS011;6325;49.540;8.364;2024-02-16T13:22:34;8.63;;;4.35;;
12519;SDS011;6325;49.540;8.364;2024-02-16T13:25:02;7.03;;;4.47;;
12519;SDS011;6325;49.540;8.364;2024-02-16T13:27:30;6.68;;;3.88;;
12519;SDS011;6325;49.540;8.364;2024-02-16T13:29:57;4.43;;;2.50;;
12519;SDS011;6325;49.540;8.364;2024-02-16T13:32:24;12.65;;;6.30;;
12519;SDS011;6325;49.540;8.364;2024-02-16T13:34:51;9.13;;;4.70;;
12519;SDS011;6325;49.540;8.364;2024-02-16T13:37:17;4.55;;;2.40;;
12519;SDS011;6325;49.540;8.364;2024-02-16T13:39:44;8.75;;;3.80;;
12519;SDS011;6325;49.540;8.364;2024-02-16T13:42:13;8.65;;;4.57;;
12519;SDS011;6325;49.540;8.364;2024-02-16T13:44:40;10.38;;;5.30;;
12519;SDS011;6325;49.540;8.364;2024-02-16T13:47:06;5.07;;;2.88;;
12519;SDS011;6325;49.540;8.364;2024-02-16T13:49:33;5.90;;;3.17;;
12519;SDS011;6325;49.540;8.364;2024-02-16T13:52:00;3.38;;;2.08;;
12519;SDS011;6325;49.540;8.364;2024-02-16T13:54:28;4.03;;;2.90;;
12519;SDS011;6325;49.540;8.364;2024-02-16T13:56:54;2.20;;;1.70;;
12519;SDS011;6325;49.540;8.364;2024-02-16T13:59:23;6.72;;;3.63;;
12519;SDS011;6325;49.540;8.364;2024-02-16T14:01:50;7.85;;;3.85;;
12519;SDS011;6325;49.540;8.364;2024-02-16T14:04:16;2.20;;;1.70;;
12519;SDS011;6325;49.540;8.364;2024-02-16T14:06:44;6.07;;;3.78;;
12519;SDS011;6325;49.540;8.364;2024-02-16T14:09:11;3.55;;;2.50;;
12519;SDS011;6325;49.540;8.364;2024-02-16T14:11:39;1.92;;;1.45;;
12519;SDS011;6325;49.540;8.364;2024-02-16T14:14:06;5.03;;;2.40;;
12519;SDS011;6325;49.540;8.364;2024-02-16T14:16:35;4.00;;;2.30;;
12519;SDS011;6325;49.540;8.364;2024-02-16T14:19:02;4.70;;;2.50;;
12519;SDS011;6325;49.540;8.364;2024-02-16T14:21:29;2.72;;;2.30;;
12519;SDS011;6325;49.540;8.364;2024-02-16T14:23:57;10.27;;;5.57;;
12519;SDS011;6325;49.540;8.364;2024-02-16T14:26:24;6.03;;;3.53;;
12519;SDS011;6325;49.540;8.364;2024-02-16T14:28:51;5.68;;;3.53;;
12519;SDS011;6325;49.540;8.364;2024-02-16T14:31:17;6.45;;;4.07;;
12519;SDS011;6325;49.540;8.364;2024-02-16T14:33:46;2.78;;;2.13;;
12519;SDS011;6325;49.540;8.364;2024-02-16T14:36:14;2.05;;;1.70;;
12519;SDS011;6325;49.540;8.364;2024-02-16T14:38:42;1.60;;;1.45;;
12519;SDS011;6325;49.540;8.364;2024-02-16T14:41:08;1.40;;;1.30;;
12519;SDS011;6325;49.540;8.364;2024-02-16T14:43:35;1.63;;;1.30;;
12519;SDS011;6325;49.540;8.364;2024-02-16T14:46:02;1.40;;;1.30;;
12519;SDS011;6325;49.540;8.364;2024-02-16T14:48:29;1.42;;;1.30;;
12519;SDS011;6325;49.540;8.364;2024-02-16T14:50:58;1.30;;;1.20;;
12519;SDS011;6325;49.540;8.364;2024-02-16T14:53:24;1.40;;;1.30;;
12519;SDS011;6325;49.540;8.364;2024-02-16T14:55:52;1.97;;;1.40;;
12519;SDS011;6325;49.540;8.364;2024-02-16T14:58:18;2.20;;;1.40;;
12519;SDS011;6325;49.540;8.364;2024-02-16T15:00:46;1.50;;;1.40;;
12519;SDS011;6325;49.540;8.364;2024-02-16T15:03:13;1.42;;;1.33;;